Strona główna
METAR-TAF:

METAR-TAF

Lotnisko :

Port lotniczy Logroño-Agoncillo

Logroño, Hiszpania

Szerokość geograficzna: 42-27N, Długość geograficzna: 002-20W, wysokość: 353 m

Aktualna obserwacja pogody

Raport powstał 24 minut temu, godzina 15:00 UTC
Wiatr 5 kt z kierunków zmiennych
Temperatura 25°C
Wilgotność 41%
Ciśnienie 1021 hPa
Widzialność 10 km lub więcej
Mało chmury na wysokości 4500 ft

METAR: LELO 211500Z VRB05KT 9999 FEW045 25/11 Q1021

czas: 17:24 (15:24 UTC)

Prognoza

Raport powstał 1 godzina i 24 minut temu, godzina 14:00 UTC
Prognoza ważna od 21 godzina 15 UTC do 22 godzina 15 UTC
Wiatr 6 kt od północno-północny zachód
Widzialność 10 km lub więcej
Brak chmur poniżej 1500 m i brak chmur cumulonimbus

TAF: LELO 211400Z 2115/2215 33006KT CAVOK TX26/2213Z TN13/2204Z

Obserwacja i prognoza pogody dla ponad 4000 lotnisk (raport METAR i TAF).

Dostępne stacje oznaczono żółtymi i czerwonymi punktami na mapie.

Najedź kursorem aby zobaczyć nazwę stacji.

Kliknij aby zobaczyć obserwacje i prognozy pogody.

Aby zmienić mapę: kliknij na zielony przycisk z czarnym krzyżykiem, aby powiększyć; na zielony przycisk z myślnikiem, aby pomniejszyć; na zielone strzałki, aby przejść do map sąsiednich.


METAR-TAF: